Kensington, CT (06037)

5:53 AM EDT on August 20, 2014 (GMT -0400)
Berlin, CT -Silver Lake Area | Change Station
CLOSE
Current Station
Personal Weather Station
Location: Berlin, CT
Elevation: 180 ft
Nearby Weather Stations

Elev 180 ft 41.59 °N, 72.76 °W | Updated 5 seconds ago

Overcast
Overcast
62.6 °F
Feels Like 62.6 °F
N
2.0
Wind Variable Wind from NNE
Gusts 2.0 mph

Today
High -- | Low -- °F
--% Chance of Precip.
Yesterday
High -- | Low -- °F
Precip. -- in
6:04 AM 7:43 PM
Waning Crescent, 23% visible
Pressure 29.98 in
Visibility 1.2 miles
Clouds Overcast 200 ft
Dew Point 61 °F
Humidity 96%
Rainfall 0.00 in
Snow Depth Not available.
UV 0 out of 12
Pollen 9.50 out of 12
Ozone Good
Flu Activity Not available.
SPECI KMMK 200918Z AUTO 00000KT 1 1/4SM BR OVC002 17/17 A2998 RMK AO2 T01720167 TSNO

More Conditions Fewer Conditions

Pressure 29.98 in
Visibility 1.2 miles
Clouds Overcast 200 ft
Dew Point 61 °F
Humidity 96%
Rainfall 0.00 in
Snow Depth Not available.
UV 0 out of 12
Pollen 9.50 out of 12
Ozone Good
Flu Activity Not available.
SPECI KMMK 200918Z AUTO 00000KT 1 1/4SM BR OVC002 17/17 A2998 RMK AO2 T01720167 TSNO

More Conditions Fewer Conditions

10-Day Weather Forecast

Almanac

Astronomy

Aug. 20, 2014 Rise Set
Actual Time 6:04 AM EDT 7:43 PM EDT
Civil Twilight 5:35 AM EDT 8:12 PM EDT
Nautical Twilight 4:59 AM EDT 8:48 PM EDT
Astronomical Twilight 4:21 AM EDT 9:26 PM EDT
Moon 1:41 AM EDT 4:27 PM EDT
Length of Visible Light 14h 37m
Length of Day
13h 38m
Tomorrow will be 2m 32s shorter.
Waning Crescent, 23% of the Moon is Illuminated
Today
Waning Crescent
Aug 25
New
Sep 2
First Quarter
Sep 8
Full
Sep 15
Last Quarter

Today's Extremes

State Highs State Lows

Community

WunderPhotos

Upload Photos

1,745,604 photos uploaded!

Nearby

Air Quality

  Air Quality AQ Index Pollutant
Yesterday Good
OZONE
Current Good
OZONE
Wednesday Good
OZONE
Wednesday Good
PM2.5

Snow Depth

Station Depth Elevation
No new snow has been reported.

Earthquake Activity

City Distance Mag. Time & Date
Deep River Center, Connecticut 23 miles 2.7 3:09 AM EDT
2014-08-14
Minimum magnitude displayed is 2.5.

Coastal Water Temperatures

Place Temperature
New London, CT 69.1 °F
Newport, RI 70.0 °F
Quonset Point, RI 71.1 °F
Conimicut Light, RI 72.0 °F
Providence, RI 72.0 °F

Nearby Weather Stations